createdAt,value
2022-09-13T00:01:12.721Z,98729.25
2022-09-13T00:04:25.106Z,98734.06
2022-09-13T00:07:36.796Z,98733.38
2022-09-13T00:10:50.232Z,98726.52
2022-09-13T00:14:03.548Z,98714.67
2022-09-13T00:17:15.170Z,98724.94
2022-09-13T00:20:27.297Z,98717.27
2022-09-13T00:23:39.074Z,98715.75
2022-09-13T00:26:50.768Z,98709.38
2022-09-13T00:30:02.400Z,98711.36
2022-09-13T00:33:14.110Z,98715.84
2022-09-13T00:36:26.072Z,98719.64
2022-09-13T00:39:37.802Z,98711.98
2022-09-13T00:42:49.688Z,98705.28
2022-09-13T00:46:01.432Z,98706.42
2022-09-13T00:49:21.429Z,98708.40
2022-09-13T00:52:36.108Z,98701.42
2022-09-13T00:55:53.286Z,98697.07
2022-09-13T00:59:09.419Z,98699.73
2022-09-13T01:02:22.847Z,98705.05
2022-09-13T01:05:39.697Z,98701.70
2022-09-13T01:08:56.447Z,98693.04
2022-09-13T01:12:12.717Z,98685.74
2022-09-13T01:15:24.666Z,98686.75
2022-09-13T01:18:36.251Z,98686.75
2022-09-13T01:22:54.161Z,98686.42
2022-09-13T01:27:14.034Z,98683.77
2022-09-13T01:30:27.623Z,98696.09
2022-09-13T01:33:59.849Z,98687.72
2022-09-13T01:37:32.542Z,98693.04
2022-09-13T01:40:57.548Z,98692.06
2022-09-13T01:44:17.141Z,98702.72
2022-09-13T01:47:34.662Z,98700.05
2022-09-13T01:50:50.575Z,98708.20
2022-09-13T01:54:16.570Z,98702.03
2022-09-13T01:57:33.703Z,98693.89
2022-09-13T02:00:51.657Z,98687.20
2022-09-13T02:04:08.344Z,98689.34
2022-09-13T02:07:25.080Z,98688.65
2022-09-13T02:10:42.246Z,98685.91
2022-09-13T02:14:00.530Z,98682.98
2022-09-13T02:17:16.886Z,98679.48
2022-09-13T02:20:33.277Z,98672.95
2022-09-13T02:23:52.030Z,98666.81
2022-09-13T02:27:08.316Z,98673.11
2022-09-13T02:30:22.332Z,98667.11
2022-09-13T02:33:39.290Z,98661.26
2022-09-13T02:36:51.029Z,98663.08
2022-09-13T02:40:08.820Z,98663.39
2022-09-13T02:43:25.396Z,98666.05
2022-09-13T02:46:49.719Z,98667.02
2022-09-13T02:50:11.509Z,98668.03
2022-09-13T02:53:29.477Z,98669.16
2022-09-13T02:56:48.224Z,98659.36
2022-09-13T03:00:00.144Z,98661.18
2022-09-13T03:03:15.547Z,98657.67
2022-09-13T03:06:32.966Z,98655.33
2022-09-13T03:09:48.177Z,98646.67
2022-09-13T03:13:31.566Z,98645.42
2022-09-13T03:17:02.802Z,98636.92
2022-09-13T03:20:23.034Z,98640.27
2022-09-13T03:23:48.777Z,98637.92
2022-09-13T03:27:14.850Z,98631.08
2022-09-13T03:30:27.015Z,98627.20
2022-09-13T03:33:46.592Z,98624.70
2022-09-13T03:37:02.641Z,98623.86
2022-09-13T03:40:19.742Z,98626.52
2022-09-13T03:43:36.915Z,98624.70
2022-09-13T03:47:07.760Z,98631.15
2022-09-13T03:50:24.620Z,98624.30
2022-09-13T03:53:45.163Z,98623.34
2022-09-13T03:57:26.139Z,98620.96
2022-09-13T04:00:40.649Z,98624.97
2022-09-13T04:03:55.976Z,98628.31
2022-09-13T04:07:06.345Z,98629.91
2022-09-13T04:10:18.708Z,98630.78
2022-09-13T04:13:31.052Z,98633.44
2022-09-13T04:16:42.702Z,98630.25
2022-09-13T04:19:57.240Z,98623.30
2022-09-13T04:23:09.441Z,98618.88
2022-09-13T04:26:21.580Z,98629.51
2022-09-13T04:29:33.972Z,98613.63
2022-09-13T04:32:48.558Z,98615.17
2022-09-13T04:36:07.416Z,98610.59
2022-09-13T04:39:22.102Z,98612.78
2022-09-13T04:42:34.715Z,98617.50
2022-09-13T04:45:48.419Z,98608.27
2022-09-13T04:49:02.386Z,98600.67
2022-09-13T04:52:14.352Z,98605.65
2022-09-13T04:55:26.740Z,98607.55
2022-09-13T04:58:38.810Z,98611.96
2022-09-13T05:01:50.771Z,98615.03
2022-09-13T05:05:02.648Z,98612.83
2022-09-13T05:08:14.641Z,98611.78
2022-09-13T05:11:27.782Z,98616.50
2022-09-13T05:14:39.630Z,98609.13
2022-09-13T05:17:51.233Z,98597.95
2022-09-13T05:21:05.034Z,98604.80
2022-09-13T05:24:16.891Z,98607.27
2022-09-13T05:27:28.560Z,98610.20
2022-09-13T05:30:42.366Z,98612.45
2022-09-13T05:33:58.797Z,98614.84
2022-09-13T05:37:10.403Z,98606.73
2022-09-13T05:40:22.315Z,98616.63
2022-09-13T05:43:36.212Z,98611.58
2022-09-13T05:46:53.413Z,98606.21
2022-09-13T05:50:12.020Z,98610.27
2022-09-13T05:53:30.153Z,98608.59
2022-09-13T05:56:52.662Z,98607.94
2022-09-13T06:00:17.481Z,98610.48
2022-09-13T06:03:29.943Z,98603.11
2022-09-13T06:06:42.252Z,98606.59
2022-09-13T06:09:53.967Z,98606.84
2022-09-13T06:13:16.327Z,98605.42
2022-09-13T06:16:28.419Z,98603.00
2022-09-13T06:19:41.544Z,98598.10
2022-09-13T06:30:19.611Z,98593.52
2022-09-13T06:33:39.851Z,98602.50
2022-09-13T06:40:32.643Z,98600.95
2022-09-13T06:43:45.918Z,98604.66
2022-09-13T06:46:57.561Z,98599.73
2022-09-13T06:53:56.476Z,98594.15
2022-09-13T06:57:08.078Z,98598.88
2022-09-13T07:00:22.190Z,98591.80
2022-09-13T07:03:43.994Z,98598.75
2022-09-13T07:10:37.772Z,98598.53
2022-09-13T07:13:54.602Z,98597.09
2022-09-13T07:17:06.378Z,98596.92
2022-09-13T07:20:31.072Z,98590.18
2022-09-13T07:23:52.165Z,98597.25
2022-09-13T07:27:04.053Z,98575.80
2022-09-13T07:30:17.193Z,98579.11
2022-09-13T07:33:28.864Z,98581.05
2022-09-13T07:36:42.107Z,98581.74
2022-09-13T07:39:53.653Z,98579.39
2022-09-13T07:43:05.488Z,98579.30
2022-09-13T07:46:21.361Z,98572.28
2022-09-13T07:49:32.982Z,98577.09
2022-09-13T07:52:44.531Z,98580.20
2022-09-13T07:55:56.031Z,98583.22
2022-09-13T07:59:10.222Z,98586.34
2022-09-13T08:02:23.693Z,98587.03
2022-09-13T08:05:35.518Z,98576.34
2022-09-13T08:08:47.244Z,98580.13
2022-09-13T08:12:01.205Z,98574.83
2022-09-13T08:15:14.964Z,98580.23
2022-09-13T08:18:26.886Z,98575.52
2022-09-13T08:21:42.824Z,98563.14
2022-09-13T08:24:54.438Z,98559.64
2022-09-13T08:28:06.148Z,98547.98
2022-09-13T08:31:20.724Z,98548.95
2022-09-13T08:34:32.623Z,98545.39
2022-09-13T08:37:44.111Z,98535.55
2022-09-13T08:41:01.070Z,98538.20
2022-09-13T08:44:18.065Z,98536.66
2022-09-13T08:47:44.909Z,98533.02
2022-09-13T08:51:00.755Z,98534.55
2022-09-13T08:54:16.189Z,98526.30
2022-09-13T08:57:34.131Z,98524.98
2022-09-13T09:00:50.661Z,98527.42
2022-09-13T09:04:04.071Z,98526.50
2022-09-13T09:07:21.377Z,98534.51
2022-09-13T09:10:37.733Z,98521.34
2022-09-13T09:13:54.644Z,98531.57
2022-09-13T09:17:10.959Z,98512.22
2022-09-13T09:20:36.093Z,98522.72
2022-09-13T09:23:52.757Z,98494.38
2022-09-13T09:27:03.727Z,98513.23
2022-09-13T09:30:20.802Z,98508.84
2022-09-13T09:33:45.441Z,98507.62
2022-09-13T09:37:03.845Z,98503.24
2022-09-13T09:40:20.848Z,98497.39
2022-09-13T09:43:37.998Z,98495.82
2022-09-13T09:46:53.394Z,98493.49
2022-09-13T09:50:14.453Z,98503.19
2022-09-13T09:53:36.160Z,98506.95
2022-09-13T09:56:56.556Z,98496.59
2022-09-13T10:00:20.224Z,98487.67
2022-09-13T10:03:36.162Z,98480.45
2022-09-13T10:06:50.059Z,98475.41
2022-09-13T10:10:08.969Z,98478.56
2022-09-13T10:13:31.045Z,98468.64
2022-09-13T10:16:40.287Z,98471.63
2022-09-13T10:20:04.026Z,98461.89
2022-09-13T10:23:27.452Z,98453.02
2022-09-13T10:26:41.753Z,98466.35
2022-09-13T10:29:59.842Z,98431.50
2022-09-13T10:33:14.320Z,98462.59
2022-09-13T10:36:51.257Z,98460.02
2022-09-13T10:39:53.117Z,98460.91
2022-09-13T10:43:09.148Z,98453.79
2022-09-13T10:46:27.613Z,98452.06
2022-09-13T10:49:53.324Z,98439.20
2022-09-13T10:53:06.471Z,98443.18
2022-09-13T10:56:27.258Z,98435.45
2022-09-13T10:59:38.801Z,98431.77
2022-09-13T11:03:21.100Z,98430.55
2022-09-13T11:06:39.791Z,98430.58
2022-09-13T11:09:57.566Z,98430.66
2022-09-13T11:13:19.210Z,98428.14
2022-09-13T11:16:46.065Z,98424.61
2022-09-13T11:20:27.745Z,98418.92
2022-09-13T11:24:02.144Z,98420.56
2022-09-13T11:27:19.345Z,98406.59
2022-09-13T11:30:34.498Z,98413.14
2022-09-13T11:33:57.968Z,98412.61
2022-09-13T11:37:29.126Z,98405.09
2022-09-13T11:40:51.439Z,98399.48
2022-09-13T11:44:34.289Z,98392.83
2022-09-13T11:47:57.232Z,98378.88
2022-09-13T11:51:16.133Z,98384.11
2022-09-13T11:54:40.097Z,98373.45
2022-09-13T11:57:56.684Z,98368.89
2022-09-13T12:01:12.868Z,98365.44
2022-09-13T12:04:33.637Z,98358.92
2022-09-13T12:07:49.092Z,98354.18
2022-09-13T12:11:04.257Z,98355.36
2022-09-13T12:14:22.367Z,98343.94
2022-09-13T12:17:39.170Z,98330.72
2022-09-13T12:20:52.309Z,98326.25
2022-09-13T12:24:08.089Z,98323.59
2022-09-13T12:27:26.973Z,98321.16
2022-09-13T12:30:47.309Z,98307.03
2022-09-13T12:33:59.934Z,98299.42
2022-09-13T12:37:40.405Z,98297.04
2022-09-13T12:41:34.457Z,98289.41
2022-09-13T12:45:01.283Z,98286.19
2022-09-13T12:48:41.386Z,98290.36
2022-09-13T12:52:27.958Z,98273.40
2022-09-13T12:56:12.033Z,98266.27
2022-09-13T13:00:04.671Z,98277.09
2022-09-13T13:03:24.556Z,98296.83
2022-09-13T13:06:41.682Z,98292.39
2022-09-13T13:09:57.117Z,98289.67
2022-09-13T13:13:25.229Z,98267.63
2022-09-13T13:16:40.778Z,98271.30
2022-09-13T13:19:52.838Z,98271.53
2022-09-13T13:23:19.523Z,98273.03
2022-09-13T13:27:01.232Z,98264.45
2022-09-13T13:30:57.651Z,98262.66
2022-09-13T13:34:35.156Z,98247.80
2022-09-13T13:37:46.967Z,98256.22
2022-09-13T13:41:05.122Z,98246.82
2022-09-13T13:45:10.854Z,98258.16
2022-09-13T13:48:33.018Z,98255.27
2022-09-13T13:51:44.858Z,98247.03
2022-09-13T13:55:25.530Z,98242.66
2022-09-13T13:58:55.059Z,98231.91
2022-09-13T14:02:07.701Z,98225.72
2022-09-13T14:05:26.349Z,98220.55
2022-09-13T14:08:50.250Z,98220.31
2022-09-13T14:12:21.995Z,98218.98
2022-09-13T14:15:51.290Z,98202.83
2022-09-13T14:19:27.963Z,98203.36
2022-09-13T14:22:39.600Z,98200.84
2022-09-13T14:25:51.782Z,98198.89
2022-09-13T14:29:03.395Z,98197.22
2022-09-13T14:32:21.671Z,98202.98
2022-09-13T14:35:37.689Z,98190.27
2022-09-13T14:38:55.787Z,98186.34
2022-09-13T14:42:15.866Z,98186.42
2022-09-13T14:45:30.988Z,98180.89
2022-09-13T14:48:52.331Z,98178.63
2022-09-13T14:52:08.759Z,98182.48
2022-09-13T14:55:24.518Z,98185.59
2022-09-13T14:58:41.150Z,98178.30
2022-09-13T15:01:53.250Z,98183.42
2022-09-13T15:05:09.094Z,98177.86
2022-09-13T15:08:52.065Z,98179.58
2022-09-13T15:12:07.910Z,98187.08
2022-09-13T15:15:34.226Z,98177.75
2022-09-13T15:18:46.136Z,98178.41
2022-09-13T15:21:57.924Z,98178.88
2022-09-13T15:25:11.095Z,98183.30
2022-09-13T15:28:30.605Z,98184.00
2022-09-13T15:31:43.081Z,98179.87
2022-09-13T15:34:56.582Z,98172.51
2022-09-13T15:38:22.205Z,98178.36
2022-09-13T15:41:38.008Z,98169.25
2022-09-13T15:44:49.719Z,98168.27
2022-09-13T15:48:01.284Z,98175.16
2022-09-13T15:51:17.561Z,98169.00
2022-09-13T15:54:33.814Z,98175.27
2022-09-13T15:57:45.735Z,98174.09
2022-09-13T16:00:57.419Z,98174.09
2022-09-13T16:04:09.537Z,98172.85
2022-09-13T16:07:21.826Z,98175.59
2022-09-13T16:10:34.056Z,98165.28
2022-09-13T16:13:45.966Z,98163.42
2022-09-13T16:16:57.562Z,98159.95
2022-09-13T16:20:11.605Z,98169.72
2022-09-13T16:23:23.347Z,98165.00
2022-09-13T16:26:38.012Z,98160.25
2022-09-13T16:29:50.051Z,98168.55
2022-09-13T16:33:02.179Z,98171.89
2022-09-13T16:36:16.332Z,98173.14
2022-09-13T16:39:28.119Z,98171.30
2022-09-13T16:42:40.472Z,98174.44
2022-09-13T16:45:52.052Z,98168.05
2022-09-13T16:49:04.623Z,98170.77
2022-09-13T16:52:16.952Z,98171.63
2022-09-13T16:55:28.577Z,98150.30
2022-09-13T16:58:42.376Z,98171.66
2022-09-13T17:01:54.210Z,98170.84
2022-09-13T17:05:09.285Z,98172.91
2022-09-13T17:08:21.550Z,98175.21
2022-09-13T17:11:35.761Z,98173.36
2022-09-13T17:14:51.507Z,98172.13
2022-09-13T17:18:04.182Z,98164.28
2022-09-13T17:21:17.458Z,98167.36
2022-09-13T17:24:31.529Z,98176.28
2022-09-13T17:27:43.600Z,98167.20
2022-09-13T17:30:56.817Z,98168.44
2022-09-13T17:34:09.906Z,98164.73
2022-09-13T17:37:35.477Z,98167.83
2022-09-13T17:41:01.446Z,98174.04
2022-09-13T17:44:14.273Z,98173.86
2022-09-13T17:51:13.801Z,98159.39
2022-09-13T17:54:26.192Z,98154.44
2022-09-13T17:57:39.209Z,98134.99
2022-09-13T18:01:04.013Z,98158.36
2022-09-13T18:04:22.097Z,98158.98
2022-09-13T18:15:32.346Z,98154.42
2022-09-13T18:18:46.244Z,98149.05
2022-09-13T18:22:00.463Z,98149.88
2022-09-13T18:25:14.936Z,98141.59
2022-09-13T18:28:26.970Z,98146.97
2022-09-13T18:31:42.500Z,98145.33
2022-09-13T18:43:55.660Z,98142.83
2022-09-13T19:22:58.412Z,98110.37
2022-09-13T19:26:25.217Z,98112.65
2022-09-13T19:29:44.301Z,98106.03
2022-09-13T19:33:02.921Z,98103.13
2022-09-13T19:36:20.332Z,98094.05
2022-09-13T19:39:34.230Z,98088.68
2022-09-13T19:42:48.374Z,98085.99
2022-09-13T19:46:10.434Z,98084.95
2022-09-13T19:49:35.619Z,98080.41
2022-09-13T19:52:50.749Z,98089.30
2022-09-13T19:56:04.901Z,98085.56
2022-09-13T19:59:20.957Z,98089.30
2022-09-13T20:02:33.209Z,98081.24
2022-09-13T20:05:47.014Z,98082.88
2022-09-13T20:12:01.397Z,98076.05
2022-09-13T20:15:21.022Z,98078.73
2022-09-13T20:18:41.497Z,98082.47
2022-09-13T20:21:56.225Z,98072.56
2022-09-13T20:25:13.268Z,98075.25
2022-09-13T20:28:33.028Z,98072.56
2022-09-13T20:32:06.058Z,98074.63
2022-09-13T20:35:22.400Z,98081.64
2022-09-13T20:38:35.911Z,98078.95
2022-09-13T20:41:50.604Z,98077.94
2022-09-13T20:45:05.600Z,98070.05
2022-09-13T20:48:29.070Z,98071.94
2022-09-13T20:51:42.493Z,98077.70
2022-09-13T20:54:54.989Z,98079.56
2022-09-13T20:58:08.601Z,98080.82
2022-09-13T21:01:23.124Z,98081.22
2022-09-13T21:04:36.407Z,98080.81
2022-09-13T21:08:02.644Z,98074.19
2022-09-13T21:11:17.057Z,98074.59
2022-09-13T21:14:30.773Z,98074.98
2022-09-13T21:17:45.234Z,98071.68
2022-09-13T21:21:04.676Z,98070.44
2022-09-13T21:27:19.358Z,98070.86
2022-09-13T21:30:31.810Z,98074.17
2022-09-13T21:33:43.628Z,98070.64
2022-09-13T21:36:59.144Z,98068.17
2022-09-13T21:40:15.243Z,98058.22
2022-09-13T21:43:31.489Z,98066.68
2022-09-13T21:46:46.536Z,98056.75
2022-09-13T21:49:58.385Z,98060.90
2022-09-13T21:53:10.431Z,98065.05
2022-09-13T21:56:24.062Z,98067.52
2022-09-13T21:59:35.797Z,98063.64
2022-09-13T22:02:47.664Z,98062.38
2022-09-13T22:06:03.985Z,98055.99
2022-09-13T22:09:18.188Z,98055.99
2022-09-13T22:12:32.049Z,98054.95
2022-09-13T22:15:45.451Z,98052.27
2022-09-13T22:19:07.947Z,98050.20
2022-09-13T22:22:17.820Z,98048.56
2022-09-13T22:25:36.910Z,98026.45
2022-09-13T22:28:50.192Z,98032.05
2022-09-13T22:32:01.981Z,98029.54
2022-09-13T22:35:15.823Z,98032.39
2022-09-13T22:38:29.018Z,98031.38
2022-09-13T22:41:43.673Z,98024.15
2022-09-13T22:44:56.871Z,98029.93
2022-09-13T22:48:12.574Z,98034.10
2022-09-13T22:51:25.825Z,98024.79
2022-09-13T22:54:37.573Z,98023.77
2022-09-13T22:57:49.140Z,98025.02
2022-09-13T23:01:07.944Z,98022.33
2022-09-13T23:04:20.138Z,98022.95
2022-09-13T23:07:31.781Z,98015.73
2022-09-13T23:10:46.303Z,98014.90
2022-09-13T23:14:02.279Z,98013.44
2022-09-13T23:17:13.867Z,98013.87
2022-09-13T23:20:25.377Z,98017.78
2022-09-13T23:23:36.943Z,97992.33
2022-09-13T23:26:52.051Z,98017.95
2022-09-13T23:30:05.002Z,98018.34
2022-09-13T23:33:19.760Z,98015.45
2022-09-13T23:36:35.528Z,98014.21
2022-09-13T23:39:49.468Z,98024.53
2022-09-13T23:43:04.978Z,98026.59
2022-09-13T23:46:21.883Z,98017.50
2022-09-13T23:49:35.732Z,98017.05
2022-09-13T23:52:49.259Z,98012.00
2022-09-13T23:56:04.935Z,98007.99
2022-09-13T23:59:20.177Z,98012.84
